Baytown, Texas
Current Conditions -  °F | °C
As of 1:50 AM on Saturday 29 Nov 2014 (Local Time) from KEFD Reporting Station
Clear Clear  
Wind Chill: 61°   Ceiling: Unl
Heat Index: 61°   Visibility: 10mi
Dew Point: 59°   Wind: 3mph
Humidity: 94%   Direction: 180°S
Pressure: 30.12"   Gusts: NA
Location:  29.73°N, 95°W
Report Text: KEFD 290750Z 18003KT 10SM CLR 16/15 A3012
Loading
Personal Weather Stations






























Interactive Weather Map New forecast layout! Learn more

10-Day Weather Forecast

Advertisements
Track Severe Weather on mobile